Pagrindinis puslapis
METAR-TAF:

METAR-TAF

Oro uostai :

Fort Stockton-Pecos County Airport

Fort Stockton, Teksasas, Jungtinės Amerikos Valstijos

platuma: 30-54-43N, ilguma: 102-55-00W, Aukštis: 917 m

Dabartinis oras

Ataskaita buvo paskelbta 14 minutes, ne 04:53 UTC
Vėjas 13 kt iš Pietryčių su gūsio iki 20 kt
Temperatūra 20°C
Drėgmė 60%
Slėgis 1022 hPa
Matomumas: 16.1 km
Giedras dangus

METAR: KFST 140453Z AUTO 14013G20KT 10SM CLR 20/12 A3017 RMK AO2 SLP180 T02000122

Laikas: 00:07 (05:07 UTC)

Prognozė

Ataskaita buvo paskelbta 5 valandos ir 47 minutes, ne 23:20 UTC
Prognozė galioja nuo 14 metu 00 UTC su 14 metu 24 UTC
Vėjas 14 kt iš Pietryčių
Matomumas: 10 km
Mažai debesys ne aukštis 25000 ft

TAF: KFST 132320Z 1400/1424 14014KT P6SM FEW250

Orai ataskaitas ir orų prognozės (METAR, TAF).

turimą stotys yra geltonos ir raudonos taškus žemėlapyje.

Perkelti pele per norėdami pamatyti stoties vardą.

Tada spustelėkite, norėdami matyti oro stebėjimo ir prognozės.

Norėdami pakeisti žemėlapį: spustelėkite ant žalios mygtukų su juodo kryžiaus žemyn,; žalią mygtuką su brūkšneliu, jei norite nutolinti; arba žalių rodyklių gretimoms žemėlapius.


METAR-TAF: